Niagara Falls International Airport
KIAG : now visible

Airfield :











YOU CAN JOIN US ON...

 
LOGIN :

Register | Disclaimer

   EN    FR    IT 

 









Legend :    VFR   Marginal VFR   IFR   Intensive IFR   Very Intensive IFR
Visi :
Ceiling :
>= 8 km
>= 3000ft
5 to 8 km
1000 to 3000 ft
1500m to 5 km
500 to 1000 ft
800 to 1500m
200 to 500 ft
< 800m
< 200 ft
Symbols :   Thunderstorms  Fog  Heavy snow  Heavy precipitations  Wind > 20 kt






- Airport Elevation : 589 ft
- IATA code : IAG


KIAG - Niagara Falls International

CURRENT METAR :
  • 192253Z 00000KT 10SM OVC024 03/00 A2988 RMK AO2 SLP131 T00280000

EXPIRED METARs :
  • 192153Z 04004KT 10SM OVC028 03/00 A2986 RMK AO2 SLP124 T00280000
  • 192119Z 04005KT 10SM OVC029 03/00 A2985 RMK AO2 T00280000
  • 192053Z 03003KT 10SM SCT023 OVC029 03/00 A2985 RMK AO2 SLP119 T00330000 53013
  • 191953Z 07006KT 10SM OVC022 03/00 A2982 RMK AO2 SLP111 T00330000

TAF KIAG
Valid from the 19 at 21:00 until the 20 at 18:00 UTC


192030Z 1921/2018 07006KT P6SM BKN025
FM192300 VRB03KT P6SM OVC015
FM200500 VRB03KT P6SM VCSH OVC015
FM201000 VRB03KT P6SM VCSH OVC007



MET'MAP, your aeronautical weather chart ! - Copyright ORBIFLY December 2007 - Disclaimer

ORBIFLY MET'MAP TEAM :

Programming & Development : Alexandra Zaïnal
Concept & Development : Baudouin d'Aumeries
Co-Development & Prog : Marc-Olivier Méhu
Technical & hardware support : Manuel Goepfert

Contact : metmap@orbifly.com




SOURCES & CREDITS :

   NOAA       Earth
Advisory